Flight Track Log - Related Links

Times and Time Zones

All times are in EDT time to prevent confusion due to time zone crossing. See the UPS1325 flight status page for this flight to view local times or setup timezone preferences in your user account.

Time Position Orientation Groundspeed Altitude Reporting Facility
EDT Latitude Longitude Course Direction KTS km/h meters Rate Location/Type
Tue 22:14:34 28.5010 -81.3200 North 255 472 1,189  Level FlightAware ADS-B
Tue 22:14:55 28.5280 -81.3150 North 268 496 1,676 1,383 Climbing FlightAware ADS-B
Tue 22:15:15 28.5530 -81.3110 North 277 513 2,134 1,330 Climbing FlightAware ADS-B
Tue 22:15:39 28.5840 -81.3060 North 286 529 2,652 1,313 Climbing FlightAware ADS-B
Tue 22:15:54 28.6040 -81.3040 North 292 541 2,987 891 Climbing FlightAware ADS-B
Tue 22:16:18 28.6350 -81.3150 343° North 335 621 3,231 660 Climbing FlightAware ADS-B
Tue 22:16:55 28.6890 -81.3560 326° Northwest 391 724 3,658 965 Climbing FlightAware ADS-B
Tue 22:17:30 28.7440 -81.3940 329° Northwest 396 734 4,389 1,053 Climbing FlightAware ADS-B
Tue 22:18:01 28.7950 -81.4220 334° Northwest 401 742 4,816 848 Climbing FlightAware ADS-B
Tue 22:18:39 28.8600 -81.4540 337° Northwest 407 753 5,364 940 Climbing FlightAware ADS-B
Tue 22:19:13 28.9250 -81.4750 344° North 419 776 5,944 979 Climbing FlightAware ADS-B
Tue 22:19:50 28.9940 -81.4970 344° North 428 793 6,523 965 Climbing FlightAware ADS-B
Tue 22:20:25 29.0610 -81.5190 344° North 433 801 7,102 901 Climbing FlightAware ADS-B
Tue 22:20:57 29.1230 -81.5390 344° North 442 819 7,529 769 Climbing FlightAware ADS-B
Tue 22:21:34 29.1980 -81.5630 344° North 454 840 7,986 737 Climbing FlightAware ADS-B
Tue 22:22:09 29.2700 -81.5860 344° North 463 858 8,412 696 Climbing FlightAware ADS-B
Tue 22:22:45 29.3450 -81.6110 344° North 471 872 8,809 689 Climbing FlightAware ADS-B
Tue 22:23:18 29.4140 -81.6330 344° North 474 877 9,205 862 Climbing FlightAware ADS-B
Tue 22:23:55 29.4930 -81.6590 344° North 464 859 9,815 927 Climbing FlightAware ADS-B
Tue 22:24:29 29.5620 -81.6810 344° North 458 848 10,302 737 Climbing FlightAware ADS-B
Tue 22:25:02 29.6290 -81.7030 344° North 459 850 10,638 627 Climbing FlightAware ADS-B
Tue 22:25:39 29.7050 -81.7280 344° North 457 847 11,034 559 Climbing FlightAware ADS-B
Tue 22:26:14 29.7750 -81.7510 344° North 459 850 11,308 432 Climbing FlightAware ADS-B
Tue 22:26:51 29.8510 -81.7750 345° North 464 859 11,552 388 Climbing FlightAware ADS-B
Tue 22:27:20 29.9130 -81.7950 344° North 464 859 11,735 305 Climbing FlightAware ADS-B
Tue 22:27:57 29.9890 -81.8200 344° North 461 855 11,887 123 Climbing FlightAware ADS-B
Tue 22:28:34 30.0640 -81.8450 344° North 461 855 11,887  Level FlightAware ADS-B
Tue 22:29:11 30.1410 -81.8700 344° North 462 856 11,887  Level FlightAware ADS-B
Tue 22:29:42 30.2030 -81.8900 344° North 462 856 11,887  Level FlightAware ADS-B
Tue 22:30:18 30.2780 -81.9160 343° North 463 858 11,887  Level FlightAware ADS-B
Tue 22:30:55 30.3520 -81.9400 344° North 463 858 11,887  Level FlightAware ADS-B
Tue 22:31:31 30.4290 -81.9650 344° North 462 856 11,887  Level FlightAware ADS-B
Tue 22:32:03 30.4950 -81.9870 344° North 462 856 11,887  Level FlightAware ADS-B
Tue 22:32:40 30.5710 -82.0120 344° North 464 859 11,887  Level FlightAware ADS-B
Tue 22:33:15 30.6410 -82.0350 344° North 464 859 11,887  Level FlightAware ADS-B
Tue 22:33:48 30.7110 -82.0580 344° North 465 861 11,887  Level FlightAware ADS-B
Tue 22:34:22 30.7810 -82.0820 344° North 465 861 11,887  Level FlightAware ADS-B
Tue 22:34:59 30.8570 -82.1070 344° North 466 863 11,887  Level FlightAware ADS-B
Tue 22:35:36 30.9340 -82.1330 344° North 467 864 11,887  Level FlightAware ADS-B
Tue 22:36:06 30.9990 -82.1550 344° North 469 869 11,887  Level FlightAware ADS-B
Tue 22:36:43 31.0750 -82.1800 344° North 469 869 11,887  Level FlightAware ADS-B
Tue 22:37:19 31.1510 -82.2050 344° North 469 869 11,887  Level FlightAware ADS-B
Tue 22:37:52 31.2160 -82.2270 344° North 471 872 11,887  Level FlightAware ADS-B
Tue 22:38:30 31.2990 -82.2550 344° North 472 874 11,887  Level FlightAware ADS-B
Tue 22:39:11 31.3840 -82.2840 344° North 473 875 11,887  Level FlightAware ADS-B
Tue 22:39:45 31.4530 -82.3070 344° North 473 875 11,887  Level FlightAware ADS-B
Tue 22:40:21 31.5340 -82.3350 344° North 472 874 11,887  Level FlightAware ADS-B
Tue 22:40:54 31.6010 -82.3580 344° North 471 872 11,887  Level FlightAware ADS-B
Tue 22:41:31 31.6770 -82.3830 344° North 471 872 11,887  Level FlightAware ADS-B
Tue 22:42:07 31.7550 -82.4100 344° North 469 869 11,887  Level FlightAware ADS-B
Tue 22:42:42 31.8290 -82.4350 344° North 468 867 11,887  Level FlightAware ADS-B
Tue 22:43:15 31.8970 -82.4580 344° North 467 864 11,887  Level FlightAware ADS-B
Tue 22:43:50 31.9640 -82.4810 344° North 466 863 11,887 -25 Level FlightAware ADS-B
Tue 22:44:27 32.0410 -82.5070 344° North 465 861 11,857  Descending FlightAware ADS-B
Tue 22:45:15 32.1450 -82.5470 342° North 466 863 11,887 23 Climbing FlightAware ADS-B
Tue 22:45:47 32.2090 -82.5740 340° North 466 863 11,887  Level FlightAware ADS-B
Tue 22:46:24 32.2840 -82.6060 340° North 466 863 11,887  Level FlightAware ADS-B
Tue 22:46:57 32.3490 -82.6340 340° North 465 861 11,887  Level FlightAware ADS-B
Tue 22:47:36 32.4310 -82.6690 340° North 465 861 11,887  Level FlightAware ADS-B
Tue 22:48:03 32.4830 -82.6920 340° North 464 859 11,887  Level FlightAware ADS-B
Tue 22:48:44 32.5680 -82.7280 340° North 465 861 11,887  Level FlightAware ADS-B
Tue 22:49:21 32.6410 -82.7590 340° North 465 861 11,887  Level FlightAware ADS-B
Tue 22:49:57 32.7150 -82.7920 339° North 466 863 11,887  Level FlightAware ADS-B
Tue 22:50:28 32.7770 -82.8180 341° North 466 863 11,887  Level FlightAware ADS-B
Tue 22:51:05 32.8540 -82.8520 340° North 466 863 11,887  Level FlightAware ADS-B
Tue 22:51:40 32.9240 -82.8820 340° North 466 863 11,887  Level FlightAware ADS-B
Tue 22:52:14 32.9940 -82.9130 340° North 466 863 11,887  Level FlightAware ADS-B
Tue 22:52:49 33.0640 -82.9430 340° North 466 863 11,887  Level FlightAware ADS-B
Tue 22:53:21 33.1270 -82.9710 340° North 466 863 11,887  Level FlightAware ADS-B
Tue 22:54:01 33.2100 -83.0070 340° North 466 863 11,887  Level FlightAware ADS-B
Tue 22:54:33 33.2760 -83.0360 340° North 466 863 11,887  Level FlightAware ADS-B
Tue 22:55:08 33.3470 -83.0670 340° North 466 863 11,887  Level FlightAware ADS-B
Tue 22:55:46 33.4220 -83.1000 340° North 466 863 11,887  Level FlightAware ADS-B
Tue 22:56:22 33.4950 -83.1340 339° North 468 867 11,887  Level FlightAware ADS-B
Tue 22:56:54 33.5570 -83.1670 336° Northwest 468 867 11,887  Level FlightAware ADS-B
Tue 22:57:29 33.6280 -83.2040 337° Northwest 467 864 11,887  Level FlightAware ADS-B
Tue 22:58:04 33.6990 -83.2410 337° Northwest 467 864 11,887  Level FlightAware ADS-B
Tue 22:58:40 33.7700 -83.2780 337° Northwest 466 863 11,887  Level FlightAware ADS-B
Tue 22:59:13 33.8340 -83.3120 336° Northwest 467 864 11,887 -27 Level FlightAware ADS-B
Tue 22:59:49 33.9030 -83.3480 337° Northwest 467 864 11,857 -26 Descending FlightAware ADS-B
Tue 23:00:24 33.9740 -83.3850 337° Northwest 467 864 11,857 29 Level FlightAware ADS-B
Tue 23:00:52 34.0311 -83.4158 336° Northwest 467 864 11,887 24 Climbing FlightAware ADS-B
Tue 23:01:39 34.1246 -83.4652 336° Northwest 467 864 11,887 -24 Level FlightAware ADS-B
Tue 23:02:09 34.1840 -83.4966 336° Northwest 469 869 11,857  Descending FlightAware ADS-B
Tue 23:02:42 34.2491 -83.5314 336° Northwest 471 872 11,887 25 Climbing FlightAware ADS-B
Tue 23:03:22 34.3279 -83.5734 336° Northwest 472 874 11,887  Level FlightAware ADS-B
Tue 23:03:52 34.3888 -83.6060 336° Northwest 478 885 11,887  Level FlightAware ADS-B
Tue 23:04:25 34.4554 -83.6413 336° Northwest 480 888 11,887  Level FlightAware ADS-B
Tue 23:05:04 34.5350 -83.6840 336° Northwest 482 893 11,887  Level FlightAware ADS-B
Tue 23:05:25 34.5788 -83.7074 336° Northwest 482 893 11,887  Level FlightAware ADS-B
Tue 23:06:08 34.6663 -83.7544 336° Northwest 478 885 11,887  Level FlightAware ADS-B
Tue 23:06:39 34.7279 -83.7877 336° Northwest 471 872 11,887  Level FlightAware ADS-B
Tue 23:07:06 34.7808 -83.8164 336° Northwest 465 861 11,887  Level FlightAware ADS-B
Tue 23:07:43 34.8548 -83.8565 336° Northwest 461 855 11,887 -27 Level FlightAware ADS-B
Tue 23:08:14 34.9135 -83.8883 336° Northwest 460 851 11,857  Descending FlightAware ADS-B
Tue 23:08:23 34.9317 -83.8977 337° Northwest 459 850 11,887 63 Climbing FlightAware ADS-B
Tue 23:08:43 34.9725 -83.9142 342° North 459 850 11,887  Level FlightAware ADS-B
Tue 23:09:14 35.0355 -83.9373 343° North 465 861 11,887  Level FlightAware ADS-B
Tue 23:09:45 35.0990 -83.9615 343° North 470 871 11,887  Level FlightAware ADS-B
Tue 23:10:16 35.1640 -83.9860 343° North 474 877 11,887  Level FlightAware ADS-B
Tue 23:10:46 35.2285 -84.0102 343° North 477 884 11,887  Level FlightAware ADS-B
Tue 23:11:16 35.2920 -84.0342 343° North 480 888 11,887  Level FlightAware ADS-B
Tue 23:11:49 35.3616 -84.0605 343° North 480 888 11,887  Level FlightAware ADS-B
Tue 23:12:22 35.4310 -84.0868 343° North 477 884 11,887  Level FlightAware ADS-B
Tue 23:12:53 35.4954 -84.1111 343° North 473 875 11,887  Level FlightAware ADS-B
Tue 23:13:23 35.5581 -84.1350 343° North 469 869 11,887  Level FlightAware ADS-B
Tue 23:13:54 35.6218 -84.1592 343° North 468 867 11,887  Level FlightAware ADS-B
Tue 23:14:24 35.6850 -84.1833 343° North 469 869 11,887  Level FlightAware ADS-B
Tue 23:14:55 35.7491 -84.2075 343° North 474 877 11,887  Level FlightAware ADS-B
Tue 23:15:25 35.8125 -84.2318 343° North 478 885 11,887 -150 Level FlightAware ADS-B
Tue 23:15:56 35.8776 -84.2564 343° North 480 888 11,735 -383 Descending FlightAware ADS-B
Tue 23:16:27 35.9422 -84.2809 343° North 468 867 11,491 -539 Descending FlightAware ADS-B
Tue 23:16:57 36.0049 -84.3052 343° North 466 863 11,186 -610 Descending FlightAware ADS-B
Tue 23:17:27 36.0675 -84.3291 343° North 472 874 10,881 -600 Descending FlightAware ADS-B
Tue 23:18:01 36.1384 -84.3563 343° North 477 884 10,546 -670 Descending FlightAware ADS-B
Tue 23:18:38 36.2178 -84.3870 343° North 495 917 10,089 -846 Descending FlightAware ADS-B
Tue 23:19:08 36.2840 -84.4126 343° North 497 921 9,601 -810 Descending FlightAware ADS-B
Tue 23:19:39 36.3504 -84.4390 342° North 483 895 9,266 -450 Descending FlightAware ADS-B
Tue 23:20:09 36.4139 -84.4638 343° North 478 885 9,144 -152 Descending FlightAware ADS-B
Tue 23:20:39 36.4783 -84.4885 343° North 481 892 9,114 -244 Descending FlightAware ADS-B
Tue 23:21:09 36.5423 -84.5131 343° North 483 895 8,900 -600 Descending FlightAware ADS-B
Tue 23:21:40 36.6077 -84.5392 342° North 481 892 8,504 -689 Descending FlightAware ADS-B
Tue 23:22:10 36.6721 -84.5642 343° North 483 895 8,199 -630 Descending FlightAware ADS-B
Tue 23:22:41 36.7370 -84.5893 343° North 480 888 7,864 -689 Descending FlightAware ADS-B
Tue 23:23:11 36.7998 -84.6140 343° North 469 869 7,498 -539 Descending FlightAware ADS-B
Tue 23:23:42 36.8619 -84.6386 342° North 444 822 7,315 -295 Descending FlightAware ADS-B
Tue 23:24:13 36.9198 -84.6619 342° North 417 772 7,193 -450 Descending FlightAware ADS-B
Tue 23:24:43 36.9759 -84.6838 343° North 410 760 6,858 -630 Descending FlightAware ADS-B
Tue 23:25:14 37.0317 -84.7054 343° North 401 742 6,553 -590 Descending FlightAware ADS-B
Tue 23:25:45 37.0846 -84.7261 343° North 394 729 6,248 -561 Descending FlightAware ADS-B
Tue 23:26:16 37.1389 -84.7476 342° North 390 723 5,974 -539 Descending FlightAware ADS-B
Tue 23:26:46 37.1903 -84.7678 343° North 383 710 5,700 -510 Descending FlightAware ADS-B
Tue 23:27:17 37.2415 -84.7883 342° North 379 702 5,456 -518 Descending FlightAware ADS-B
Tue 23:27:53 37.3027 -84.8126 342° North 374 692 5,121 -515 Descending FlightAware ADS-B
Tue 23:28:28 37.3570 -84.8340 343° North 364 674 4,846 -510 Descending FlightAware ADS-B
Tue 23:28:54 37.4014 -84.8520 342° North 368 681 4,602 -529 Descending FlightAware ADS-B
Tue 23:29:44 37.4800 -84.8830 343° North 357 661 4,176 -513 Descending FlightAware ADS-B
Tue 23:30:16 37.5300 -84.9030 342° North 346 641 3,901 -592 Descending FlightAware ADS-B
Tue 23:30:52 37.5860 -84.9260 342° North 345 639 3,505 -559 Descending FlightAware ADS-B
Tue 23:31:28 37.6390 -84.9480 342° North 339 628 3,231 -419 Descending FlightAware ADS-B
Tue 23:31:40 37.6550 -84.9590 331° Northwest 336 623 3,170 -261 Descending FlightAware ADS-B
Tue 23:31:56 37.6730 -84.9800 317° Northwest 334 618 3,109 -305 Descending FlightAware ADS-B
Tue 23:32:16 37.6950 -85.0100 313° West 332 615 2,987 -183 Descending FlightAware ADS-B
Tue 23:32:36 37.7160 -85.0380 313° West 333 616 2,987  Level FlightAware ADS-B
Tue 23:33:00 37.7410 -85.0730 312° West 333 616 2,987  Level FlightAware ADS-B
Tue 23:33:20 37.7610 -85.1000 313° West 332 615 2,987  Level FlightAware ADS-B
Tue 23:33:40 37.7820 -85.1290 313° West 318 589 2,987  Level FlightAware ADS-B
Tue 23:33:56 37.7970 -85.1510 311° West 300 555 2,987 -152 Level FlightAware ADS-B
Tue 23:34:16 37.8120 -85.1770 306° West 289 536 2,896 -274 Descending FlightAware ADS-B
Tue 23:34:36 37.8260 -85.2080 300° West 288 533 2,804 -274 Descending FlightAware ADS-B
Tue 23:34:56 37.8380 -85.2370 298° West 286 529 2,713 -269 Descending FlightAware ADS-B
Tue 23:35:10 37.8480 -85.2580 301° West 286 529 2,652 -254 Descending FlightAware ADS-B
Tue 23:35:32 37.8620 -85.2900 299° West 283 525 2,560 -215 Descending FlightAware ADS-B
Tue 23:36:01 37.8800 -85.3310 299° West 279 517 2,469 -183 Descending FlightAware ADS-B
Tue 23:36:22 37.8930 -85.3610 299° West 276 512 2,408 -223 Descending FlightAware ADS-B
Tue 23:36:42 37.9060 -85.3890 300° West 274 507 2,316 -233 Descending FlightAware ADS-B
Tue 23:37:09 37.9220 -85.4270 298° West 271 502 2,225 -194 Descending FlightAware ADS-B
Tue 23:37:29 37.9350 -85.4550 300° West 272 504 2,164 -208 Descending FlightAware ADS-B
Tue 23:37:53 37.9490 -85.4890 298° West 271 502 2,073 -125 Descending FlightAware ADS-B
Tue 23:38:13 37.9610 -85.5150 300° West 270 501 2,073  Level FlightAware ADS-B
Tue 23:38:25 37.9690 -85.5330 299° West 270 501 2,073  Level FlightAware ADS-B
Tue 23:38:49 37.9830 -85.5650 299° West 262 486 2,073 -41 Level FlightAware ADS-B
Tue 23:39:09 37.9950 -85.5920 299° West 244 452 2,042 -174 Descending FlightAware ADS-B
Tue 23:39:31 38.0060 -85.6190 297° West 239 443 1,951 -215 Descending FlightAware ADS-B
Tue 23:39:43 38.0130 -85.6330 302° West 240 444 1,920 -203 Descending FlightAware ADS-B
Tue 23:40:07 38.0270 -85.6630 301° West 241 446 1,829 -208 Descending FlightAware ADS-B
Tue 23:40:27 38.0370 -85.6870 298° West 243 451 1,768 -111 Descending FlightAware ADS-B
Tue 23:40:40 38.0440 -85.7030 299° West 242 447 1,768  Level FlightAware ADS-B
Tue 23:41:00 38.0560 -85.7280 301° West 241 446 1,768  Level FlightAware ADS-B
Tue 23:41:20 38.0670 -85.7520 300° West 240 444 1,768  Level FlightAware ADS-B
Tue 23:41:36 38.0760 -85.7710 301° West 240 444 1,768 -101 Level FlightAware ADS-B
Tue 23:41:56 38.0870 -85.7960 299° West 241 446 1,707 -254 Descending FlightAware ADS-B
Tue 23:42:12 38.0970 -85.8160 302° West 244 452 1,615 -392 Descending FlightAware ADS-B
Tue 23:42:24 38.1080 -85.8250 327° Northwest 253 468 1,524 -457 Descending FlightAware ADS-B
Tue 23:42:32 38.1170 -85.8290 341° North 254 470 1,463 -392 Descending FlightAware ADS-B
Tue 23:42:52 38.1400 -85.8370 345° North 249 462 1,341 -254 Descending FlightAware ADS-B
Tue 23:43:08 38.1570 -85.8430 344° North 246 455 1,311 -203 Descending FlightAware ADS-B
Tue 23:43:28 38.1790 -85.8500 346° North 245 454 1,219 -229 Descending FlightAware ADS-B
Tue 23:43:48 38.2010 -85.8570 346° North 242 447 1,158 -91 Descending FlightAware ADS-B
Tue 23:44:08 38.2230 -85.8650 344° North 239 443 1,158  Level FlightAware ADS-B
Tue 23:44:32 38.2490 -85.8740 345° North 238 441 1,158  Level FlightAware ADS-B
Tue 23:44:44 38.2620 -85.8780 346° North 239 443 1,158 -57 Level FlightAware ADS-B
Tue 23:45:04 38.2830 -85.8860 343° North 238 441 1,128 -249 Descending FlightAware ADS-B
Tue 23:45:28 38.3080 -85.8940 346° North 240 444 975 -294 Descending FlightAware ADS-B
Tue 23:46:00 38.3400 -85.8810 18° North 225 417 853 -183 Descending FlightAware ADS-B
Tue 23:46:08 38.3430 -85.8710 69° East 217 402 853  Level FlightAware ADS-B
Tue 23:46:16 38.3450 -85.8620 74° East 204 378 853  Level FlightAware ADS-B
Tue 23:46:28 38.3470 -85.8490 79° East 200 370 853  Level FlightAware ADS-B
Tue 23:46:36 38.3460 -85.8390 97° East 195 360 853  Level FlightAware ADS-B
Tue 23:46:44 38.3430 -85.8310 116° Southeast 191 354 853  Level FlightAware ADS-B
Tue 23:47:04 38.3300 -85.8140 134° Southeast 191 354 853  Level FlightAware ADS-B
Tue 23:47:21 38.3210 -85.8020 134° Southeast 191 354 853  Level FlightAware ADS-B
Tue 23:47:32 38.3130 -85.7930 139° Southeast 191 354 853 -96 Level FlightAware ADS-B
Tue 23:47:40 38.3070 -85.7890 152° Southeast 187 346 823 -343 Descending FlightAware ADS-B
Tue 23:47:48 38.3010 -85.7870 165° South 187 346 762 -326 Descending FlightAware ADS-B
Tue 23:48:08 38.2840 -85.7810 165° South 180 333 671 -268 Descending FlightAware ADS-B
Tue 23:48:29 38.2680 -85.7750 164° South 164 304 579 -223 Descending FlightAware ADS-B
Tue 23:48:49 38.2540 -85.7710 167° South 141 261 518 -213 Descending FlightAware ADS-B
Tue 23:49:12 38.2400 -85.7660 164° South 139 257 427 -255 Descending FlightAware ADS-B
Tue 23:49:32 38.2270 -85.7620 166° South 139 257 335 -240 Descending FlightAware ADS-B
Tue 23:49:50 38.2160 -85.7580 164° South 140 259 274 -183 Descending FlightAware ADS-B
Tue 23:50:12 38.2020 -85.7540 167° South 142 262 213 -208 Descending FlightAware ADS-B
Tue 23:50:34 38.1870 -85.7490 165° South 143 266 122 -240 Descending FlightAware ADS-B
Tue 23:50:50 38.1770 -85.7460 167° South 132 245 61 -229 Descending FlightAware ADS-B

Login

Don't have an account? Register now (free) for customized features, flight alerts, and more!